createdAt,value
2018-09-13T00:00:33.943Z,983.20
2018-09-13T00:01:33.964Z,894.80
2018-09-13T00:02:33.976Z,889.60
2018-09-13T00:03:34.023Z,894.10
2018-09-13T00:04:34.060Z,887.00
2018-09-13T00:05:34.403Z,934.80
2018-09-13T00:06:34.273Z,969.90
2018-09-13T00:07:34.211Z,917.20
2018-09-13T00:08:34.221Z,884.30
2018-09-13T00:09:34.309Z,880.00
2018-09-13T00:10:34.309Z,882.00
2018-09-13T00:11:34.658Z,863.80
2018-09-13T00:12:34.559Z,882.20
2018-09-13T00:13:34.452Z,889.70
2018-09-13T00:14:34.492Z,856.20
2018-09-13T00:15:34.587Z,969.80
2018-09-13T00:16:34.587Z,903.60
2018-09-13T00:17:34.937Z,883.40
2018-09-13T00:18:34.684Z,890.20
2018-09-13T00:19:34.730Z,883.50
2018-09-13T00:20:34.956Z,891.40
2018-09-13T00:21:34.788Z,868.40
2018-09-13T00:22:35.002Z,891.10
2018-09-13T00:23:34.878Z,867.50
2018-09-13T00:24:34.924Z,954.90
2018-09-13T00:25:34.976Z,870.50
2018-09-13T00:26:35.007Z,885.60
2018-09-13T00:27:35.258Z,1038.10
2018-09-13T00:28:35.114Z,869.60
2018-09-13T00:29:35.184Z,853.80
2018-09-13T00:30:35.192Z,872.00
2018-09-13T00:31:35.244Z,872.10
2018-09-13T00:32:35.279Z,896.90
2018-09-13T00:33:35.626Z,1052.40
2018-09-13T00:34:35.501Z,890.60
2018-09-13T00:35:35.415Z,875.10
2018-09-13T00:36:35.459Z,889.20
2018-09-13T00:37:35.485Z,850.80
2018-09-13T00:38:35.511Z,872.70
2018-09-13T00:39:35.584Z,904.50
2018-09-13T00:40:35.903Z,931.90
2018-09-13T00:41:35.664Z,1060.50
2018-09-13T00:42:35.707Z,1054.90
2018-09-13T00:43:35.736Z,896.20
2018-09-13T00:44:35.803Z,908.60
2018-09-13T00:45:35.841Z,891.10
2018-09-13T00:46:36.020Z,875.50
2018-09-13T00:47:36.220Z,877.90
2018-09-13T00:48:35.966Z,899.50
2018-09-13T00:49:36.020Z,890.70
2018-09-13T00:50:36.049Z,890.60
2018-09-13T00:51:36.101Z,890.00
2018-09-13T00:52:36.294Z,889.90
2018-09-13T00:53:36.188Z,865.90
2018-09-13T00:54:36.257Z,868.60
2018-09-13T00:55:36.268Z,985.20
2018-09-13T00:56:36.356Z,951.90
2018-09-13T00:57:36.728Z,900.70
2018-09-13T00:58:36.568Z,883.80
2018-09-13T00:59:36.454Z,902.90
2018-09-13T01:00:36.488Z,935.70
2018-09-13T01:01:36.536Z,899.90
2018-09-13T01:02:36.577Z,991.00
2018-09-13T01:03:36.869Z,904.80
2018-09-13T01:04:36.650Z,1053.30
2018-09-13T01:05:36.697Z,930.40
2018-09-13T01:06:36.742Z,949.80
2018-09-13T01:07:36.794Z,938.80
2018-09-13T01:08:36.833Z,920.90
2018-09-13T01:09:37.062Z,906.50
2018-09-13T01:10:36.887Z,965.20
2018-09-13T01:11:36.940Z,918.60
2018-09-13T01:12:37.001Z,920.40
2018-09-13T01:13:37.034Z,925.20
2018-09-13T01:14:37.377Z,934.70
2018-09-13T01:15:37.303Z,1068.20
2018-09-13T01:16:37.154Z,935.60
2018-09-13T01:17:37.220Z,990.60
2018-09-13T01:19:10.480Z,921.40
2018-09-13T01:19:37.295Z,933.80
2018-09-13T01:20:37.647Z,947.50
2018-09-13T01:21:37.578Z,924.40
2018-09-13T01:22:37.448Z,929.90
2018-09-13T01:23:37.493Z,942.70
2018-09-13T01:24:37.524Z,985.70
2018-09-13T01:25:37.563Z,916.60
2018-09-13T01:26:37.893Z,923.10
2018-09-13T01:27:37.786Z,942.70
2018-09-13T01:28:37.697Z,951.60
2018-09-13T01:29:37.710Z,923.00
2018-09-13T01:30:37.774Z,915.10
2018-09-13T01:31:37.829Z,925.90
2018-09-13T01:32:38.154Z,948.60
2018-09-13T01:34:11.117Z,1198.70
2018-09-13T01:34:37.956Z,935.80
2018-09-13T01:35:37.993Z,931.30
2018-09-13T01:36:38.021Z,1018.70
2018-09-13T01:37:38.079Z,907.10
2018-09-13T01:38:39.933Z,952.60
2018-09-13T01:39:38.313Z,858.60
2018-09-13T01:40:38.180Z,854.50
2018-09-13T01:41:38.244Z,861.20
2018-09-13T01:42:38.277Z,845.30
2018-09-13T01:43:38.316Z,855.00
2018-09-13T01:44:38.656Z,832.70
2018-09-13T01:45:38.604Z,884.30
2018-09-13T01:46:38.448Z,859.60
2018-09-13T01:47:38.473Z,839.50
2018-09-13T01:48:38.512Z,848.70
2018-09-13T01:49:38.574Z,889.10
2018-09-13T01:50:38.910Z,919.00
2018-09-13T01:51:38.752Z,842.80
2018-09-13T01:52:38.689Z,838.60
2018-09-13T01:53:38.753Z,845.10
2018-09-13T01:54:38.769Z,892.80
2018-09-13T01:55:38.803Z,1006.80
2018-09-13T01:56:39.089Z,886.40
2018-09-13T01:57:38.894Z,872.40
2018-09-13T01:58:38.934Z,838.00
2018-09-13T01:59:38.997Z,855.40
2018-09-13T02:00:39.008Z,858.20
2018-09-13T02:01:39.163Z,865.50
2018-09-13T02:02:39.383Z,839.00
2018-09-13T02:03:39.138Z,851.20
2018-09-13T02:04:39.204Z,854.70
2018-09-13T02:05:39.236Z,841.10
2018-09-13T02:06:39.281Z,908.30
2018-09-13T02:07:39.439Z,851.20
2018-09-13T02:08:39.432Z,872.20
2018-09-13T02:09:39.424Z,872.60
2018-09-13T02:10:39.463Z,877.70
2018-09-13T02:11:39.499Z,876.20
2018-09-13T02:12:39.546Z,859.50
2018-09-13T02:13:39.728Z,909.10
2018-09-13T02:14:39.638Z,860.90
2018-09-13T02:15:39.698Z,925.00
2018-09-13T02:16:39.713Z,872.30
2018-09-13T02:17:39.755Z,928.10
2018-09-13T02:18:39.812Z,1418.50
2018-09-13T02:19:39.861Z,485.00
2018-09-13T02:20:39.896Z,507.40
2018-09-13T02:21:39.932Z,560.30
2018-09-13T02:22:39.960Z,441.10
2018-09-13T02:23:40.254Z,464.40
2018-09-13T02:24:40.159Z,466.10
2018-09-13T02:25:40.107Z,486.80
2018-09-13T02:26:40.144Z,475.80
2018-09-13T02:27:40.192Z,449.20
2018-09-13T02:28:40.242Z,466.80
2018-09-13T02:29:40.497Z,551.70
2018-09-13T02:30:40.404Z,443.20
2018-09-13T02:31:40.340Z,534.90
2018-09-13T02:32:40.392Z,451.90
2018-09-13T02:33:40.438Z,496.00
2018-09-13T02:34:40.494Z,504.10
2018-09-13T02:35:40.814Z,597.40
2018-09-13T02:36:40.673Z,495.70
2018-09-13T02:37:40.603Z,497.70
2018-09-13T02:38:40.650Z,519.00
2018-09-13T02:39:40.711Z,522.50
2018-09-13T02:40:40.737Z,602.20
2018-09-13T02:41:40.789Z,621.90
2018-09-13T02:42:41.059Z,563.40
2018-09-13T02:43:40.867Z,565.20
2018-09-13T02:44:40.896Z,509.60
2018-09-13T02:45:40.963Z,500.00
2018-09-13T02:46:41.012Z,512.70
2018-09-13T02:47:41.058Z,548.10
2018-09-13T02:48:41.237Z,521.50
2018-09-13T02:49:41.399Z,875.70
2018-09-13T02:50:41.219Z,521.10
2018-09-13T02:51:41.258Z,537.00
2018-09-13T02:52:41.237Z,556.40
2018-09-13T02:53:41.304Z,563.30
2018-09-13T02:54:41.493Z,771.90
2018-09-13T02:55:41.366Z,559.70
2018-09-13T02:56:41.425Z,546.90
2018-09-13T02:57:41.497Z,550.60
2018-09-13T02:58:41.514Z,663.70
2018-09-13T02:59:41.833Z,568.90
2018-09-13T03:00:41.603Z,710.00
2018-09-13T03:01:41.627Z,541.60
2018-09-13T03:02:41.678Z,607.70
2018-09-13T03:03:41.759Z,564.60
2018-09-13T03:04:41.864Z,566.60
2018-09-13T03:05:41.807Z,613.40
2018-09-13T03:06:41.862Z,716.90
2018-09-13T03:07:41.923Z,970.80
2018-09-13T03:08:41.907Z,563.40
2018-09-13T03:09:42.221Z,660.90
2018-09-13T03:10:42.053Z,569.10
2018-09-13T03:11:42.106Z,573.60
2018-09-13T03:12:42.121Z,568.30
2018-09-13T03:13:42.171Z,613.70
2018-09-13T03:14:42.283Z,603.70
2018-09-13T03:15:42.255Z,704.70
2018-09-13T03:16:42.314Z,577.20
2018-09-13T03:17:42.324Z,796.30
2018-09-13T03:18:42.375Z,566.40
2018-09-13T03:19:42.434Z,572.10
2018-09-13T03:20:42.552Z,683.80
2018-09-13T03:21:42.522Z,624.40
2018-09-13T03:22:42.591Z,649.50
2018-09-13T03:23:42.595Z,585.60
2018-09-13T03:24:42.629Z,585.20
2018-09-13T03:25:42.763Z,608.10
2018-09-13T03:26:43.003Z,613.40
2018-09-13T03:27:42.741Z,586.50
2018-09-13T03:28:42.796Z,589.00
2018-09-13T03:29:42.839Z,585.70
2018-09-13T03:30:42.863Z,667.60
2018-09-13T03:31:42.934Z,634.90
2018-09-13T03:32:43.092Z,587.20
2018-09-13T03:33:42.986Z,658.20
2018-09-13T03:34:43.030Z,664.80
2018-09-13T03:35:43.089Z,1781.30
2018-09-13T03:36:43.132Z,711.90
2018-09-13T03:37:43.424Z,649.00
2018-09-13T03:38:43.304Z,673.20
2018-09-13T03:39:43.241Z,671.80
2018-09-13T03:40:43.281Z,673.60
2018-09-13T03:41:43.321Z,649.80
2018-09-13T03:42:43.364Z,588.00
2018-09-13T03:43:43.670Z,608.00
2018-09-13T03:44:43.482Z,659.60
2018-09-13T03:45:43.537Z,695.10
2018-09-13T03:46:43.544Z,653.60
2018-09-13T03:47:43.603Z,612.10
2018-09-13T03:48:43.742Z,602.60
2018-09-13T03:49:43.667Z,644.10
2018-09-13T03:50:43.709Z,593.50
2018-09-13T03:51:43.757Z,592.70
2018-09-13T03:52:43.861Z,581.20
2018-09-13T03:53:44.110Z,606.10
2018-09-13T03:54:43.894Z,610.40
2018-09-13T03:55:43.947Z,581.80
2018-09-13T03:56:43.974Z,578.40
2018-09-13T03:57:44.035Z,580.60
2018-09-13T03:58:44.450Z,578.20
2018-09-13T03:59:44.095Z,588.40
2018-09-13T04:00:44.150Z,564.80
2018-09-13T04:01:44.180Z,628.40
2018-09-13T04:02:44.223Z,582.80
2018-09-13T04:03:44.258Z,644.70
2018-09-13T04:04:44.563Z,631.20
2018-09-13T04:05:44.352Z,607.10
2018-09-13T04:06:44.403Z,585.30
2018-09-13T04:07:44.449Z,810.40
2018-09-13T04:08:44.493Z,581.50
2018-09-13T04:09:44.668Z,652.00
2018-09-13T04:10:44.580Z,569.60
2018-09-13T04:11:44.604Z,670.10
2018-09-13T04:12:44.659Z,680.10
2018-09-13T04:13:44.695Z,581.60
2018-09-13T04:14:45.003Z,576.30
2018-09-13T04:15:44.823Z,913.90
2018-09-13T04:16:44.824Z,619.20
2018-09-13T04:17:44.906Z,572.00
2018-09-13T04:18:44.986Z,583.40
2018-09-13T04:19:45.058Z,665.70
2018-09-13T04:20:45.016Z,574.40
2018-09-13T04:21:45.032Z,581.90
2018-09-13T04:22:45.122Z,599.80
2018-09-13T04:23:45.137Z,661.70
2018-09-13T04:24:45.413Z,829.40
2018-09-13T04:25:45.261Z,737.00
2018-09-13T04:26:45.238Z,908.40
2018-09-13T04:27:45.300Z,844.30
2018-09-13T04:28:45.336Z,855.00
2018-09-13T04:29:45.496Z,749.20
2018-09-13T04:30:45.679Z,869.90
2018-09-13T04:31:45.480Z,909.10
2018-09-13T04:32:45.524Z,845.70
2018-09-13T04:33:45.571Z,593.70
2018-09-13T04:34:45.610Z,849.20
2018-09-13T04:35:46.093Z,724.90
2018-09-13T04:36:45.786Z,722.50
2018-09-13T04:37:45.716Z,612.90
2018-09-13T04:38:45.765Z,610.80
2018-09-13T04:39:45.853Z,596.00
2018-09-13T04:40:45.846Z,623.40
2018-09-13T04:41:46.150Z,606.00
2018-09-13T04:42:45.922Z,652.60
2018-09-13T04:43:45.975Z,584.70
2018-09-13T04:44:46.025Z,661.60
2018-09-13T04:45:46.084Z,752.10
2018-09-13T04:46:46.197Z,704.30
2018-09-13T04:47:46.554Z,1004.50
2018-09-13T04:48:46.202Z,689.00
2018-09-13T04:49:46.249Z,912.30
2018-09-13T04:50:46.269Z,619.40
2018-09-13T04:51:46.301Z,678.50
2018-09-13T04:52:46.405Z,799.00
2018-09-13T04:53:46.631Z,622.10
2018-09-13T04:54:46.545Z,645.10
2018-09-13T04:55:46.495Z,865.80
2018-09-13T04:56:46.538Z,612.70
2018-09-13T04:57:46.562Z,658.30
2018-09-13T04:58:46.616Z,626.40
2018-09-13T04:59:47.208Z,787.50
2018-09-13T05:00:46.943Z,719.00
2018-09-13T05:01:46.739Z,615.80
2018-09-13T05:02:46.846Z,616.40
2018-09-13T05:03:46.826Z,695.30
2018-09-13T05:04:46.887Z,742.70
2018-09-13T05:05:47.212Z,628.20
2018-09-13T05:06:46.941Z,799.20
2018-09-13T05:07:46.978Z,649.30
2018-09-13T05:08:47.035Z,666.20
2018-09-13T05:09:47.072Z,785.50
2018-09-13T05:10:47.376Z,637.20
2018-09-13T05:11:47.213Z,652.80
2018-09-13T05:12:47.289Z,788.50
2018-09-13T05:13:47.256Z,1217.00
2018-09-13T05:14:47.282Z,727.20
2018-09-13T05:15:47.426Z,730.60
2018-09-13T05:16:47.767Z,642.70
2018-09-13T05:17:47.401Z,694.80
2018-09-13T05:18:47.495Z,638.90
2018-09-13T05:19:47.522Z,755.90
2018-09-13T05:20:47.545Z,797.30
2018-09-13T05:21:47.675Z,757.20
2018-09-13T05:22:47.637Z,1086.00
2018-09-13T05:23:47.677Z,1999.90
2018-09-13T05:24:47.701Z,829.40
2018-09-13T05:25:47.764Z,850.40
2018-09-13T05:26:47.807Z,898.80
2018-09-13T05:27:48.100Z,718.00
2018-09-13T05:28:47.880Z,751.30
2018-09-13T05:29:47.973Z,727.40
2018-09-13T05:30:47.957Z,717.10
2018-09-13T05:31:48.142Z,698.20
2018-09-13T05:32:48.135Z,1507.30
2018-09-13T05:33:48.119Z,760.70
2018-09-13T05:34:48.126Z,716.80
2018-09-13T05:35:48.165Z,965.90
2018-09-13T05:36:48.234Z,731.70
2018-09-13T05:37:48.521Z,733.60
2018-09-13T05:38:48.651Z,791.50
2018-09-13T05:39:48.391Z,802.20
2018-09-13T05:40:48.396Z,773.60
2018-09-13T05:41:48.442Z,737.00
2018-09-13T05:42:48.554Z,800.20
2018-09-13T05:43:48.523Z,737.80
2018-09-13T05:44:48.715Z,1354.40
2018-09-13T05:45:48.604Z,931.70
2018-09-13T05:46:48.633Z,1330.70
2018-09-13T05:47:48.686Z,782.40
2018-09-13T05:48:48.733Z,836.10
2018-09-13T05:49:49.022Z,765.50
2018-09-13T05:50:48.900Z,843.60
2018-09-13T05:51:48.857Z,756.10
2018-09-13T05:52:48.892Z,794.40
2018-09-13T05:53:48.925Z,747.70
2018-09-13T05:54:49.005Z,771.90
2018-09-13T05:55:49.041Z,730.00
2018-09-13T05:56:49.304Z,732.30
2018-09-13T05:57:49.114Z,750.90
2018-09-13T05:58:49.193Z,744.30
2018-09-13T05:59:49.196Z,777.90
2018-09-13T06:00:49.214Z,825.50
2018-09-13T06:01:49.353Z,723.10
2018-09-13T06:02:49.613Z,782.20
2018-09-13T06:03:49.353Z,797.60
2018-09-13T06:04:49.379Z,802.30
2018-09-13T06:05:49.438Z,725.00
2018-09-13T06:06:49.481Z,751.80
2018-09-13T06:07:49.531Z,766.70
2018-09-13T06:08:49.671Z,736.80
2018-09-13T06:09:49.911Z,838.00
2018-09-13T06:10:49.715Z,776.40
2018-09-13T06:11:49.697Z,739.10
2018-09-13T06:12:49.717Z,741.30
2018-09-13T06:13:49.795Z,982.40
2018-09-13T06:14:50.123Z,752.30
2018-09-13T06:15:49.956Z,837.20
2018-09-13T06:16:49.892Z,719.70
2018-09-13T06:17:49.961Z,764.00
2018-09-13T06:18:49.998Z,828.90
2018-09-13T06:19:50.073Z,756.80
2018-09-13T06:20:50.329Z,728.70
2018-09-13T06:21:50.393Z,1263.00
2018-09-13T06:22:50.171Z,908.70
2018-09-13T06:23:50.217Z,1450.60
2018-09-13T06:24:50.239Z,1443.40
2018-09-13T06:25:50.290Z,942.50
2018-09-13T06:26:50.464Z,781.90
2018-09-13T06:27:50.613Z,753.70
2018-09-13T06:28:50.403Z,1101.90
2018-09-13T06:29:50.445Z,787.30
2018-09-13T06:30:50.487Z,808.10
2018-09-13T06:31:50.525Z,869.50
2018-09-13T06:32:50.559Z,985.00
2018-09-13T06:33:50.964Z,811.50
2018-09-13T06:34:50.638Z,692.50
2018-09-13T06:35:50.713Z,766.00
2018-09-13T06:36:50.744Z,847.20
2018-09-13T06:37:50.807Z,761.60
2018-09-13T06:38:50.941Z,724.70
2018-09-13T06:39:51.115Z,855.40
2018-09-13T06:40:50.959Z,1805.00
2018-09-13T06:41:50.973Z,874.80
2018-09-13T06:42:51.008Z,837.90
2018-09-13T06:43:51.050Z,1122.70
2018-09-13T06:44:51.094Z,890.20
2018-09-13T06:45:51.232Z,722.90
2018-09-13T06:46:51.187Z,669.30
2018-09-13T06:47:51.222Z,651.40
2018-09-13T06:48:51.268Z,889.70
2018-09-13T06:49:51.303Z,1178.70
2018-09-13T06:50:51.593Z,1343.50
2018-09-13T06:51:51.392Z,1047.90
2018-09-13T06:52:51.436Z,1012.00
2018-09-13T06:53:51.517Z,1005.50
2018-09-13T06:54:51.515Z,999.50
2018-09-13T06:55:51.638Z,965.70
2018-09-13T06:56:51.878Z,945.50
2018-09-13T06:57:51.632Z,962.80
2018-09-13T06:58:51.670Z,955.30
2018-09-13T06:59:51.711Z,1175.50
2018-09-13T07:00:51.811Z,1069.10
2018-09-13T07:01:51.909Z,1213.30
2018-09-13T07:02:51.831Z,1178.90
2018-09-13T07:03:51.884Z,978.80
2018-09-13T07:04:51.937Z,1100.30
2018-09-13T07:05:51.978Z,994.50
2018-09-13T07:06:52.267Z,789.10
2018-09-13T07:07:52.082Z,815.90
2018-09-13T07:08:52.120Z,892.20
2018-09-13T07:09:52.148Z,850.00
2018-09-13T07:10:52.162Z,762.40
2018-09-13T07:11:52.327Z,750.60
2018-09-13T07:12:52.275Z,771.50
2018-09-13T07:13:52.356Z,746.60
2018-09-13T07:14:52.357Z,742.90
2018-09-13T07:15:52.393Z,775.10
2018-09-13T07:16:52.430Z,715.00
2018-09-13T07:17:52.792Z,732.60
2018-09-13T07:18:52.515Z,728.30
2018-09-13T07:19:52.568Z,803.10
2018-09-13T07:20:52.613Z,891.00
2018-09-13T07:21:52.676Z,850.60
2018-09-13T07:22:52.735Z,878.30
2018-09-13T07:23:52.815Z,804.20
2018-09-13T07:24:52.835Z,818.30
2018-09-13T07:25:52.806Z,801.80
2018-09-13T07:26:52.900Z,1135.50
2018-09-13T07:27:52.880Z,808.40
2018-09-13T07:28:53.203Z,782.70
2018-09-13T07:29:53.291Z,759.40
2018-09-13T07:30:53.079Z,854.00
2018-09-13T07:31:53.056Z,760.80
2018-09-13T07:32:53.106Z,756.70
2018-09-13T07:33:53.172Z,769.80
2018-09-13T07:34:53.299Z,781.80
2018-09-13T07:35:53.248Z,749.60
2018-09-13T07:36:53.343Z,755.60
2018-09-13T07:37:53.329Z,756.50
2018-09-13T07:38:53.363Z,885.30
2018-09-13T07:39:53.658Z,845.60
2018-09-13T07:40:53.793Z,774.50
2018-09-13T07:41:53.462Z,774.50
2018-09-13T07:42:53.640Z,777.00
2018-09-13T07:43:53.589Z,776.20
2018-09-13T07:44:53.603Z,755.50
2018-09-13T07:45:53.769Z,780.20
2018-09-13T07:46:53.932Z,830.70
2018-09-13T07:47:53.757Z,767.00
2018-09-13T07:48:53.800Z,788.10
2018-09-13T07:49:54.053Z,920.80
2018-09-13T07:50:53.857Z,906.00
2018-09-13T07:51:54.206Z,907.20
2018-09-13T07:52:53.939Z,910.80
2018-09-13T07:53:53.976Z,854.70
2018-09-13T07:54:54.018Z,1007.50
2018-09-13T07:55:54.072Z,984.00
2018-09-13T07:56:54.235Z,909.00
2018-09-13T07:57:54.168Z,1023.80
2018-09-13T07:58:54.194Z,876.00
2018-09-13T07:59:54.263Z,934.60
2018-09-13T08:00:54.273Z,913.00
2018-09-13T08:01:54.581Z,914.50
2018-09-13T08:02:54.374Z,877.80
2018-09-13T08:03:54.425Z,839.90
2018-09-13T08:04:54.486Z,934.60
2018-09-13T08:05:54.487Z,972.30
2018-09-13T08:06:54.784Z,993.40
2018-09-13T08:07:54.625Z,781.60
2018-09-13T08:08:54.664Z,814.40
2018-09-13T08:09:54.669Z,934.20
2018-09-13T08:10:54.701Z,1005.20
2018-09-13T08:11:54.923Z,936.50
2018-09-13T08:12:55.112Z,858.80
2018-09-13T08:13:54.829Z,953.50
2018-09-13T08:14:54.881Z,978.20
2018-09-13T08:15:54.973Z,961.70
2018-09-13T08:16:54.977Z,962.50
2018-09-13T08:17:55.274Z,918.30
2018-09-13T08:18:55.150Z,907.00
2018-09-13T08:19:55.098Z,913.20
2018-09-13T08:20:55.120Z,1009.20
2018-09-13T08:21:55.211Z,1051.20
2018-09-13T08:22:55.255Z,1107.00
2018-09-13T08:23:55.507Z,1045.60
2018-09-13T08:24:55.402Z,946.20
2018-09-13T08:25:55.341Z,889.00
2018-09-13T08:26:55.415Z,1001.10
2018-09-13T08:27:55.432Z,1010.10
2018-09-13T08:28:55.475Z,958.50
2018-09-13T08:29:55.763Z,940.20
2018-09-13T08:30:55.683Z,965.00
2018-09-13T08:31:55.606Z,960.90
2018-09-13T08:32:55.639Z,1105.20
2018-09-13T08:33:55.678Z,934.60
2018-09-13T08:34:55.919Z,1039.90
2018-09-13T08:35:56.028Z,1010.30
2018-09-13T08:36:55.850Z,1080.00
2018-09-13T08:37:55.855Z,1002.30
2018-09-13T08:38:55.887Z,341.10
2018-09-13T08:39:55.989Z,144.30
2018-09-13T08:40:55.980Z,13.60
2018-09-13T08:41:56.284Z,330.20
2018-09-13T08:42:56.232Z,12.70
2018-09-13T08:43:56.148Z,13.40
2018-09-13T08:44:56.124Z,13.30
2018-09-13T08:45:56.187Z,13.30
2018-09-13T08:46:56.218Z,13.10
2018-09-13T08:47:56.566Z,13.50
2018-09-13T08:48:56.397Z,13.50
2018-09-13T08:49:56.361Z,13.30
2018-09-13T08:50:56.414Z,13.20
2018-09-13T08:51:56.484Z,13.00
2018-09-13T08:52:56.477Z,12.90
2018-09-13T08:53:56.792Z,13.20
2018-09-13T08:54:56.873Z,14.20
2018-09-13T08:55:56.657Z,12.80
2018-09-13T08:56:56.699Z,13.30
2018-09-13T08:57:56.691Z,12.90
2018-09-13T08:58:56.733Z,13.00
2018-09-13T08:59:56.894Z,12.90
2018-09-13T09:00:56.832Z,13.50
2018-09-13T09:01:56.838Z,12.90
2018-09-13T09:02:56.906Z,12.70
2018-09-13T09:03:56.939Z,12.70
2018-09-13T09:04:56.995Z,12.90
2018-09-13T09:05:57.321Z,14.00
2018-09-13T09:06:57.180Z,13.30
2018-09-13T09:07:57.124Z,13.00
2018-09-13T09:08:57.158Z,14.30
2018-09-13T09:09:57.224Z,13.70
2018-09-13T09:10:57.292Z,13.80
2018-09-13T09:11:57.654Z,13.60
2018-09-13T09:12:57.603Z,14.20
2018-09-13T09:13:57.340Z,13.60
2018-09-13T09:14:57.422Z,13.40
2018-09-13T09:15:57.431Z,13.60
2018-09-13T09:16:57.477Z,13.90
2018-09-13T09:17:57.639Z,14.10
2018-09-13T09:18:57.812Z,13.70
2018-09-13T09:19:57.620Z,13.20
2018-09-13T09:20:57.651Z,13.90
2018-09-13T09:21:57.704Z,12.60
2018-09-13T09:22:57.739Z,13.90
2018-09-13T09:23:58.049Z,14.00
2018-09-13T09:24:57.836Z,14.00
2018-09-13T09:25:57.861Z,13.90
2018-09-13T09:26:57.896Z,14.00
2018-09-13T09:27:57.956Z,14.00
2018-09-13T09:28:58.102Z,14.50
2018-09-13T09:29:58.212Z,13.10
2018-09-13T09:30:58.086Z,14.20
2018-09-13T09:31:58.120Z,13.90
2018-09-13T09:32:58.176Z,13.50
2018-09-13T09:33:58.220Z,14.80
2018-09-13T09:34:58.598Z,13.60
2018-09-13T09:35:58.549Z,14.40
2018-09-13T09:36:58.342Z,14.40
2018-09-13T09:37:58.396Z,14.30
2018-09-13T09:38:58.428Z,14.30
2018-09-13T09:39:58.524Z,14.20
2018-09-13T09:40:58.614Z,14.60
2018-09-13T09:41:58.812Z,13.60
2018-09-13T09:42:58.590Z,14.60
2018-09-13T09:43:58.614Z,14.40
2018-09-13T09:44:58.666Z,14.20
2018-09-13T09:45:58.704Z,14.30
2018-09-13T09:46:58.854Z,15.40
2018-09-13T09:47:59.141Z,14.40
2018-09-13T09:48:58.839Z,14.30
2018-09-13T09:49:58.886Z,14.60
2018-09-13T09:50:58.945Z,14.50
2018-09-13T09:51:59.047Z,14.80
2018-09-13T09:52:59.115Z,15.00
2018-09-13T09:53:59.103Z,13.90
2018-09-13T09:54:59.083Z,15.10
2018-09-13T09:55:59.215Z,14.20
2018-09-13T09:56:59.169Z,14.80
2018-09-13T09:57:59.567Z,15.60
2018-09-13T09:58:59.277Z,14.90
2018-09-13T09:59:59.320Z,15.60
2018-09-13T10:00:59.349Z,15.50
2018-09-13T10:01:59.402Z,15.70
2018-09-13T10:02:59.595Z,15.90
2018-09-13T10:03:59.490Z,14.10
2018-09-13T10:04:59.531Z,16.20
2018-09-13T10:05:59.594Z,15.50
2018-09-13T10:06:59.616Z,16.70
2018-09-13T10:07:59.735Z,16.00
2018-09-13T10:08:59.717Z,16.80
2018-09-13T10:09:59.755Z,16.50
2018-09-13T10:10:59.792Z,16.70
2018-09-13T10:11:59.860Z,16.70
2018-09-13T10:13:00.116Z,17.10
2018-09-13T10:14:00.032Z,17.10
2018-09-13T10:15:00.016Z,17.10
2018-09-13T10:16:00.061Z,16.90
2018-09-13T10:17:00.050Z,17.50
2018-09-13T10:18:00.096Z,18.60
2018-09-13T10:19:00.394Z,18.30
2018-09-13T10:20:00.257Z,18.10
2018-09-13T10:21:00.230Z,18.60
2018-09-13T10:22:00.263Z,18.20
2018-09-13T10:23:00.311Z,18.70
2018-09-13T10:24:00.329Z,19.20
2018-09-13T10:25:00.374Z,18.20
2018-09-13T10:26:00.445Z,17.90
2018-09-13T10:27:00.549Z,19.00
2018-09-13T10:28:00.519Z,18.90
2018-09-13T10:29:00.548Z,18.80
2018-09-13T10:30:00.760Z,18.50
2018-09-13T10:31:00.688Z,19.50
2018-09-13T10:32:00.673Z,19.70
2018-09-13T10:33:00.788Z,20.10
2018-09-13T10:34:00.789Z,21.30
2018-09-13T10:35:01.132Z,20.00
2018-09-13T10:36:00.974Z,20.80
2018-09-13T10:37:00.901Z,20.50
2018-09-13T10:38:00.962Z,20.40
2018-09-13T10:39:00.987Z,20.90
2018-09-13T10:40:01.045Z,20.80
2018-09-13T10:41:01.321Z,21.20
2018-09-13T10:42:01.206Z,20.30
2018-09-13T10:43:01.151Z,21.00
2018-09-13T10:44:01.225Z,21.40
2018-09-13T10:45:01.252Z,21.00
2018-09-13T10:46:01.292Z,21.00
2018-09-13T10:47:01.427Z,21.40
2018-09-13T10:48:01.386Z,21.00
2018-09-13T10:49:01.429Z,22.20
2018-09-13T10:50:01.489Z,21.60
2018-09-13T10:51:01.504Z,21.80
2018-09-13T10:52:01.583Z,22.10
2018-09-13T10:53:01.682Z,22.40
2018-09-13T10:54:01.627Z,22.70
2018-09-13T10:55:01.683Z,21.70
2018-09-13T10:56:01.731Z,22.10
2018-09-13T10:57:01.750Z,18.70
2018-09-13T10:58:02.074Z,23.20
2018-09-13T10:59:01.894Z,23.70
2018-09-13T11:00:01.900Z,22.90
2018-09-13T11:01:01.960Z,23.50
2018-09-13T11:02:01.997Z,23.10
2018-09-13T11:03:02.146Z,24.30
2018-09-13T11:04:02.105Z,24.30
2018-09-13T11:05:02.128Z,21.60
2018-09-13T11:06:02.183Z,24.60
2018-09-13T11:07:02.226Z,24.50
2018-09-13T11:08:02.350Z,25.50
2018-09-13T11:09:02.318Z,23.70
2018-09-13T11:10:02.338Z,22.90
2018-09-13T11:11:02.600Z,24.70
2018-09-13T11:12:02.433Z,24.80
2018-09-13T11:13:02.460Z,25.10
2018-09-13T11:14:02.512Z,26.70
2018-09-13T11:15:02.553Z,26.40
2018-09-13T11:16:02.673Z,26.30
2018-09-13T11:17:02.643Z,26.20
2018-09-13T11:18:02.700Z,26.30
2018-09-13T11:19:03.053Z,25.20
2018-09-13T11:20:02.792Z,25.10
2018-09-13T11:21:02.841Z,24.80
2018-09-13T11:22:02.871Z,25.90
2018-09-13T11:23:02.917Z,24.20
2018-09-13T11:24:03.038Z,25.30
2018-09-13T11:25:03.049Z,23.50
2018-09-13T11:26:03.027Z,24.70
2018-09-13T11:27:03.084Z,24.40
2018-09-13T11:28:03.189Z,23.10
2018-09-13T11:29:03.306Z,23.40
2018-09-13T11:30:03.231Z,24.40
2018-09-13T11:31:03.275Z,23.70
2018-09-13T11:32:03.350Z,23.10
2018-09-13T11:33:03.353Z,22.60
2018-09-13T11:34:03.390Z,23.10
2018-09-13T11:35:03.441Z,23.20
2018-09-13T11:36:03.471Z,22.80
2018-09-13T11:37:03.521Z,22.80
2018-09-13T11:38:03.577Z,22.10
2018-09-13T11:39:03.733Z,22.50
2018-09-13T11:40:03.710Z,22.40
2018-09-13T11:41:03.869Z,22.60
2018-09-13T11:42:03.774Z,22.80
2018-09-13T11:43:03.814Z,22.60
2018-09-13T11:44:03.857Z,22.40
2018-09-13T11:45:03.892Z,23.00
2018-09-13T11:46:03.982Z,23.80
2018-09-13T11:47:03.979Z,22.20
2018-09-13T11:48:04.030Z,21.90
2018-09-13T11:49:04.149Z,22.40
2018-09-13T11:50:04.129Z,21.90
2018-09-13T11:51:04.163Z,21.10
2018-09-13T11:52:04.208Z,23.10
2018-09-13T11:53:04.259Z,22.30
2018-09-13T11:54:04.345Z,23.00
2018-09-13T11:55:04.348Z,22.20
2018-09-13T11:56:04.396Z,22.50
2018-09-13T11:57:04.421Z,22.20
2018-09-13T11:58:04.493Z,22.70
2018-09-13T11:59:04.784Z,23.00
2018-09-13T12:00:04.563Z,22.80
2018-09-13T12:01:04.640Z,23.20
2018-09-13T12:02:04.775Z,23.00
2018-09-13T12:03:04.709Z,22.30
2018-09-13T12:04:04.749Z,22.50
2018-09-13T12:05:05.049Z,22.90
2018-09-13T12:06:04.841Z,21.10
2018-09-13T12:07:04.879Z,22.60
2018-09-13T12:08:04.918Z,22.30
2018-09-13T12:09:04.963Z,22.30
2018-09-13T12:10:05.100Z,23.40
2018-09-13T12:11:05.063Z,22.80
2018-09-13T12:12:05.112Z,23.90
2018-09-13T12:13:05.155Z,22.40
2018-09-13T12:14:05.214Z,23.40
2018-09-13T12:15:05.362Z,22.90
2018-09-13T12:16:05.305Z,23.10
2018-09-13T12:17:05.391Z,23.30
2018-09-13T12:18:05.414Z,22.80
2018-09-13T12:19:05.414Z,22.50
2018-09-13T12:20:05.466Z,22.80
2018-09-13T12:21:05.625Z,23.40
2018-09-13T12:22:05.566Z,23.30
2018-09-13T12:23:05.606Z,22.40
2018-09-13T12:24:05.646Z,22.50
2018-09-13T12:25:05.750Z,22.70
2018-09-13T12:26:05.910Z,22.60
2018-09-13T12:27:05.810Z,23.50
2018-09-13T12:28:05.834Z,23.60
2018-09-13T12:29:05.898Z,22.80
2018-09-13T12:30:05.982Z,23.50
2018-09-13T12:31:06.125Z,23.10
2018-09-13T12:32:06.031Z,23.50
2018-09-13T12:33:06.096Z,23.70
2018-09-13T12:34:06.143Z,22.40
2018-09-13T12:35:06.178Z,23.30